Melrose, MA (02176)

10:43 PM EDT on August 30, 2014 (GMT -0400)
East Side Melrose | Change Station
CLOSE
Current Station
Personal Weather Station
Location: Melrose, MA
Elevation: 115 ft
Nearby Weather Stations

Elev 115 ft 42.46 °N, 71.05 °W | Updated 3 seconds ago

Partly Cloudy
Partly Cloudy
65.6 °F
Feels Like 65.6 °F
N
2.0
Wind Variable Wind from SSW
Gusts 3.5 mph

Today
High -- | Low -- °F
--% Chance of Precip.
Yesterday
High -- | Low -- °F
Precip. -- in
6:07 AM 7:21 PM
Waxing Crescent, 26% visible
Pressure 30.16 in
Visibility 10.0 miles
Clouds Scattered Clouds 27000 ft
Dew Point 61 °F
Humidity 86%
Rainfall 0.00 in
Snow Depth Not available.
UV 0 out of 12
Pollen 9.20 out of 12
PM2.5 Good
Flu Activity Not available.
METAR KBOS 310154Z 20010KT 10SM SCT270 19/15 A3016 RMK AO2 SLP213 T01940150 $

More Conditions Fewer Conditions

Pressure 30.16 in
Visibility 10.0 miles
Clouds Scattered Clouds 27000 ft
Dew Point 61 °F
Humidity 86%
Rainfall 0.00 in
Snow Depth Not available.
UV 0 out of 12
Pollen 9.20 out of 12
PM2.5 Good
Flu Activity Not available.
METAR KBOS 310154Z 20010KT 10SM SCT270 19/15 A3016 RMK AO2 SLP213 T01940150 $

More Conditions Fewer Conditions

10-Day Weather Forecast

Almanac

Astronomy

Aug. 30, 2014 Rise Set
Actual Time 6:07 AM EDT 7:21 PM EDT
Civil Twilight 5:38 AM EDT 7:50 PM EDT
Nautical Twilight 5:03 AM EDT 8:25 PM EDT
Astronomical Twilight 4:26 AM EDT 9:02 PM EDT
Moon 10:58 AM EDT (8/30) 9:47 PM EDT (8/30)
Length of Visible Light 14h 12m
Length of Day
13h 14m
Tomorrow will be 2m 44s shorter.
Waxing Crescent, 26% of the Moon is Illuminated
Today
Waxing Crescent
Sep 2
First Quarter
Sep 8
Full
Sep 15
Last Quarter
Sep 24
New

Today's Extremes

State Highs State Lows

Community

WunderPhotos

Upload Photos

1,748,749 photos uploaded!

Nearby

Air Quality

  Air Quality AQ Index Pollutant
Yesterday Good
OZONE
Yesterday Good
PM2.5
Current Good
PM2.5
Saturday Good
PM2.5
Saturday Good
OZONE
Sunday Good
PM2.5
Sunday Good
OZONE
Monday Good
PM2.5
Monday Good
OZONE
Tuesday Moderate
PM2.5
Tuesday Moderate
OZONE

Snow Depth

Station Depth Elevation
No new snow has been reported.

Earthquake Activity

City Distance Mag. Time & Date
No recent earthquake activity has been reported nearby.
Minimum magnitude displayed is 2.5.

Coastal Water Temperatures

Place Temperature
Boston, MA 68.0 °F
Providence, RI 71.1 °F
Fall River, MA 73.0 °F
Conimicut Light, RI 72.0 °F

Nearby Weather Stations